createdAt,value
2024-01-12T00:01:20.430Z,45.97
2024-01-12T00:05:23.342Z,45.75
2024-01-12T00:09:25.475Z,45.70
2024-01-12T00:13:27.110Z,46.36
2024-01-12T00:17:32.195Z,45.84
2024-01-12T00:21:34.426Z,46.38
2024-01-12T00:25:36.388Z,46.23
2024-01-12T00:29:38.585Z,45.69
2024-01-12T00:33:40.377Z,46.05
2024-01-12T00:37:42.209Z,45.67
2024-01-12T00:41:45.588Z,45.40
2024-01-12T00:45:47.384Z,45.94
2024-01-12T00:49:50.247Z,45.75
2024-01-12T00:53:52.214Z,45.68
2024-01-12T00:57:56.021Z,46.20
2024-01-12T01:01:59.676Z,46.18
2024-01-12T01:06:01.178Z,46.55
2024-01-12T01:10:04.949Z,46.04
2024-01-12T01:14:06.456Z,46.62
2024-01-12T01:18:08.284Z,46.28
2024-01-12T01:22:09.865Z,46.65
2024-01-12T01:26:12.675Z,46.36
2024-01-12T01:30:15.949Z,46.36
2024-01-12T01:34:17.804Z,46.26
2024-01-12T01:38:19.654Z,47.71
2024-01-12T01:42:21.371Z,46.82
2024-01-12T01:46:24.077Z,46.92
2024-01-12T01:50:27.355Z,47.60
2024-01-12T01:54:29.407Z,46.81
2024-01-12T01:58:32.426Z,47.19
2024-01-12T02:02:34.588Z,47.38
2024-01-12T02:06:36.482Z,47.65
2024-01-12T02:10:38.300Z,47.38
2024-01-12T02:14:40.206Z,47.02
2024-01-12T02:18:41.844Z,46.82
2024-01-12T02:22:43.577Z,47.33
2024-01-12T02:26:45.747Z,47.40
2024-01-12T02:30:48.357Z,46.43
2024-01-12T02:34:58.192Z,47.24
2024-01-12T02:39:01.347Z,47.04
2024-01-12T02:43:07.641Z,47.00
2024-01-12T02:47:10.127Z,47.32
2024-01-12T02:51:11.603Z,46.80
2024-01-12T02:55:13.398Z,46.79
2024-01-12T02:59:16.364Z,46.73
2024-01-12T03:03:20.335Z,47.25
2024-01-12T03:07:22.127Z,48.23
2024-01-12T03:11:24.029Z,47.52
2024-01-12T03:15:25.811Z,47.81
2024-01-12T03:19:27.367Z,47.91
2024-01-12T03:23:29.198Z,47.99
2024-01-12T03:27:30.625Z,48.73
2024-01-12T03:31:34.273Z,48.83
2024-01-12T03:35:37.988Z,49.34
2024-01-12T03:39:41.560Z,48.36
2024-01-12T03:43:44.059Z,48.70
2024-01-12T03:47:46.619Z,49.43
2024-01-12T03:51:55.255Z,49.21
2024-01-12T03:55:56.920Z,49.51
2024-01-12T03:59:58.584Z,48.92
2024-01-12T04:04:00.491Z,48.92
2024-01-12T04:08:06.494Z,48.96
2024-01-12T04:12:08.669Z,48.89
2024-01-12T04:16:10.240Z,48.81
2024-01-12T04:20:13.204Z,48.82
2024-01-12T04:24:14.606Z,48.75
2024-01-12T04:28:16.315Z,48.98
2024-01-12T04:32:20.243Z,49.02
2024-01-12T04:36:25.068Z,48.72
2024-01-12T04:40:28.067Z,48.74
2024-01-12T04:44:29.882Z,48.80
2024-01-12T04:48:33.459Z,49.42
2024-01-12T04:52:36.557Z,49.08
2024-01-12T04:56:38.279Z,49.14
2024-01-12T05:00:40.155Z,49.48
2024-01-12T05:04:41.677Z,49.42
2024-01-12T05:08:44.341Z,49.64
2024-01-12T05:12:47.191Z,50.08
2024-01-12T05:16:50.040Z,50.10
2024-01-12T05:20:51.646Z,50.16
2024-01-12T05:24:53.175Z,50.46
2024-01-12T05:28:56.149Z,49.99
2024-01-12T05:32:57.686Z,50.37
2024-01-12T05:37:02.185Z,50.22
2024-01-12T05:41:04.051Z,50.27
2024-01-12T05:45:08.176Z,50.80
2024-01-12T05:49:10.433Z,50.24
2024-01-12T05:53:12.480Z,50.07
2024-01-12T05:57:14.242Z,50.13
2024-01-12T06:01:15.857Z,51.05
2024-01-12T06:05:18.373Z,50.62
2024-01-12T06:09:20.899Z,50.84
2024-01-12T06:13:23.157Z,50.65
2024-01-12T06:17:24.994Z,51.00
2024-01-12T06:21:27.124Z,51.11
2024-01-12T06:25:30.929Z,50.87
2024-01-12T06:29:32.826Z,51.28
2024-01-12T06:33:35.640Z,50.67
2024-01-12T06:37:38.567Z,51.53
2024-01-12T06:41:48.051Z,51.11
2024-01-12T06:45:51.290Z,50.61
2024-01-12T06:49:53.001Z,51.26
2024-01-12T07:02:08.655Z,50.61
2024-01-12T07:06:11.073Z,51.29
2024-01-12T07:10:12.741Z,51.30
2024-01-12T07:14:15.867Z,51.25
2024-01-12T07:18:21.302Z,50.83
2024-01-12T07:22:22.849Z,50.78
2024-01-12T07:26:24.808Z,50.37
2024-01-12T07:30:26.859Z,50.76
2024-01-12T07:34:30.810Z,50.25
2024-01-12T07:38:32.955Z,49.96
2024-01-12T07:42:36.053Z,50.69
2024-01-12T07:46:37.919Z,50.44
2024-01-12T07:50:41.477Z,50.92
2024-01-12T07:54:44.561Z,50.70
2024-01-12T07:58:49.029Z,50.61
2024-01-12T08:02:55.997Z,50.61
2024-01-12T08:06:57.982Z,50.55
2024-01-12T08:10:59.849Z,50.47
2024-01-12T08:15:02.223Z,50.49
2024-01-12T08:19:04.115Z,52.99
2024-01-12T08:23:06.007Z,54.97
2024-01-12T08:27:07.544Z,52.58
2024-01-12T08:31:09.678Z,51.72
2024-01-12T08:35:11.332Z,51.29
2024-01-12T08:39:13.928Z,50.90
2024-01-12T08:43:15.646Z,51.38
2024-01-12T08:47:23.137Z,52.07
2024-01-12T08:51:24.930Z,50.53
2024-01-12T08:55:27.611Z,51.31
2024-01-12T08:59:30.006Z,50.93
2024-01-12T09:03:31.811Z,50.82
2024-01-12T09:07:33.721Z,50.31
2024-01-12T09:11:36.018Z,50.46
2024-01-12T09:15:37.499Z,51.59
2024-01-12T09:19:39.146Z,51.14
2024-01-12T09:23:42.598Z,50.96
2024-01-12T09:27:44.093Z,50.54
2024-01-12T09:31:45.696Z,50.47
2024-01-12T09:35:47.352Z,50.04
2024-01-12T09:39:49.843Z,50.20
2024-01-12T09:43:56.566Z,50.02
2024-01-12T09:48:01.293Z,49.69
2024-01-12T09:52:04.359Z,49.97
2024-01-12T09:56:08.442Z,50.11
2024-01-12T10:00:14.727Z,49.49
2024-01-12T10:04:17.426Z,50.15
2024-01-12T10:08:19.077Z,49.90
2024-01-12T10:12:20.823Z,50.26
2024-01-12T10:16:25.044Z,50.75
2024-01-12T10:20:28.697Z,49.69
2024-01-12T10:24:32.241Z,49.69
2024-01-12T10:28:34.424Z,50.01
2024-01-12T10:32:37.110Z,50.02
2024-01-12T10:36:40.118Z,49.31
2024-01-12T10:40:43.241Z,49.35
2024-01-12T10:44:55.180Z,49.44
2024-01-12T10:49:07.372Z,49.70
2024-01-12T10:53:19.134Z,49.99
2024-01-12T10:57:21.204Z,49.38
2024-01-12T11:01:25.785Z,49.93
2024-01-12T11:05:30.523Z,50.37
2024-01-12T11:09:32.777Z,49.32
2024-01-12T11:13:35.295Z,49.75
2024-01-12T11:17:38.414Z,49.43
2024-01-12T11:21:41.973Z,49.61
2024-01-12T11:25:45.156Z,49.31
2024-01-12T11:29:53.969Z,50.97
2024-01-12T11:34:02.379Z,50.04
2024-01-12T11:38:10.224Z,50.39
2024-01-12T11:42:12.413Z,49.78
2024-01-12T11:46:15.183Z,50.20
2024-01-12T11:50:21.720Z,49.61
2024-01-12T11:54:24.546Z,49.69
2024-01-12T11:58:31.416Z,50.16
2024-01-12T12:02:36.831Z,49.74
2024-01-12T12:06:38.655Z,49.73
2024-01-12T12:10:44.064Z,50.73
2024-01-12T12:14:58.747Z,49.96
2024-01-12T12:19:02.082Z,51.38
2024-01-12T12:23:05.395Z,50.14
2024-01-12T12:27:08.572Z,50.55
2024-01-12T12:31:12.189Z,50.58
2024-01-12T12:35:15.580Z,50.28
2024-01-12T12:39:21.234Z,49.99
2024-01-12T12:43:23.658Z,49.88
2024-01-12T12:47:28.618Z,50.08
2024-01-12T12:51:31.299Z,49.49
2024-01-12T12:55:32.818Z,49.61
2024-01-12T12:59:37.096Z,49.40
2024-01-12T13:03:39.211Z,48.62
2024-01-12T13:07:41.405Z,48.89
2024-01-12T13:11:43.223Z,49.17
2024-01-12T13:15:44.867Z,49.02
2024-01-12T13:19:46.410Z,49.04
2024-01-12T13:23:48.058Z,48.81
2024-01-12T13:27:49.539Z,49.49
2024-01-12T13:31:51.465Z,49.53
2024-01-12T13:35:54.948Z,49.69
2024-01-12T13:40:00.055Z,50.10
2024-01-12T13:44:04.908Z,50.20
2024-01-12T13:48:11.068Z,49.82
2024-01-12T13:52:13.698Z,50.08
2024-01-12T13:56:15.619Z,50.78
2024-01-12T14:00:29.407Z,50.05
2024-01-12T14:04:32.566Z,50.43
2024-01-12T14:08:38.508Z,50.58
2024-01-12T14:12:41.023Z,50.64
2024-01-12T14:16:43.044Z,50.32
2024-01-12T14:20:44.506Z,50.29
2024-01-12T14:24:51.095Z,50.68
2024-01-12T14:28:55.862Z,50.14
2024-01-12T14:32:58.751Z,50.92
2024-01-12T14:37:00.551Z,51.31
2024-01-12T14:41:02.247Z,50.71
2024-01-12T14:45:06.466Z,50.65
2024-01-12T14:49:12.092Z,50.33
2024-01-12T14:53:14.021Z,50.67
2024-01-12T14:57:17.656Z,50.61
2024-01-12T15:01:20.079Z,50.93
2024-01-12T15:05:24.297Z,50.91
2024-01-12T15:09:26.246Z,51.14
2024-01-12T15:13:29.222Z,51.05
2024-01-12T15:17:31.819Z,50.57
2024-01-12T15:21:34.932Z,51.84
2024-01-12T15:25:36.770Z,51.07
2024-01-12T15:29:38.375Z,52.01
2024-01-12T15:33:46.155Z,51.21
2024-01-12T15:37:48.100Z,51.22
2024-01-12T15:41:54.524Z,51.49
2024-01-12T15:45:56.809Z,51.37
2024-01-12T15:49:58.484Z,51.66
2024-01-12T15:54:01.035Z,51.45
2024-01-12T15:58:04.305Z,51.61
2024-01-12T16:02:06.665Z,51.27
2024-01-12T16:06:09.639Z,51.40
2024-01-12T16:10:11.340Z,50.88
2024-01-12T16:14:13.344Z,51.25
2024-01-12T16:18:17.693Z,51.28
2024-01-12T16:22:19.391Z,51.43
2024-01-12T16:26:22.795Z,51.63
2024-01-12T16:30:25.998Z,50.86
2024-01-12T16:34:27.884Z,51.19
2024-01-12T16:38:30.263Z,51.24
2024-01-12T16:42:31.825Z,51.41
2024-01-12T16:46:33.480Z,50.78
2024-01-12T16:50:36.135Z,51.33
2024-01-12T16:54:37.602Z,51.51
2024-01-12T16:58:42.525Z,50.77
2024-01-12T17:02:45.479Z,51.16
2024-01-12T17:06:53.608Z,51.53
2024-01-12T17:10:56.101Z,51.54
2024-01-12T17:14:57.807Z,51.09
2024-01-12T17:19:00.251Z,51.17
2024-01-12T17:23:01.951Z,50.83
2024-01-12T17:27:07.379Z,51.95
2024-01-12T17:31:10.147Z,51.39
2024-01-12T17:35:13.289Z,51.32
2024-01-12T17:39:18.866Z,51.68
2024-01-12T17:43:22.169Z,51.11
2024-01-12T17:47:23.982Z,51.21
2024-01-12T17:51:27.042Z,51.71
2024-01-12T17:55:29.921Z,50.82
2024-01-12T17:59:35.249Z,51.32
2024-01-12T18:03:36.803Z,51.35
2024-01-12T18:07:40.717Z,50.84
2024-01-12T18:11:45.313Z,51.63
2024-01-12T18:15:49.929Z,51.41
2024-01-12T18:19:51.857Z,51.69
2024-01-12T18:23:54.970Z,51.04
2024-01-12T18:27:56.733Z,51.00
2024-01-12T18:32:00.959Z,50.94
2024-01-12T18:36:03.345Z,51.49
2024-01-12T18:40:05.553Z,51.32
2024-01-12T18:44:07.003Z,51.33
2024-01-12T18:48:08.786Z,51.07
2024-01-12T18:52:12.261Z,51.47
2024-01-12T18:56:17.380Z,51.43
2024-01-12T19:00:19.563Z,51.59
2024-01-12T19:04:26.314Z,51.78
2024-01-12T19:08:31.490Z,52.22
2024-01-12T19:12:32.971Z,53.20
2024-01-12T19:16:36.115Z,52.79
2024-01-12T19:20:39.832Z,53.42
2024-01-12T19:24:49.996Z,53.08
2024-01-12T19:28:51.868Z,53.72
2024-01-12T19:32:53.584Z,54.24
2024-01-12T19:37:00.110Z,53.12
2024-01-12T19:41:03.012Z,53.68
2024-01-12T19:45:13.275Z,53.39
2024-01-12T19:49:16.228Z,53.67
2024-01-12T19:53:20.936Z,53.01
2024-01-12T19:57:23.836Z,53.28
2024-01-12T20:01:31.489Z,53.30
2024-01-12T20:05:35.589Z,52.79
2024-01-12T20:09:42.831Z,52.74
2024-01-12T20:13:44.357Z,52.29
2024-01-12T20:17:46.439Z,52.00
2024-01-12T20:21:49.453Z,52.50
2024-01-12T20:25:51.810Z,52.37
2024-01-12T20:29:53.742Z,52.27
2024-01-12T20:33:55.476Z,52.14
2024-01-12T20:37:57.046Z,51.37
2024-01-12T20:42:05.339Z,52.22
2024-01-12T20:46:07.001Z,52.15
2024-01-12T20:50:08.652Z,52.31
2024-01-12T20:54:10.606Z,52.21
2024-01-12T20:58:12.808Z,52.24
2024-01-12T21:02:16.932Z,52.12
2024-01-12T21:06:20.342Z,52.15
2024-01-12T21:10:23.715Z,51.70
2024-01-12T21:14:29.718Z,51.79
2024-01-12T21:18:36.126Z,52.28
2024-01-12T21:22:42.942Z,52.58
2024-01-12T21:26:45.070Z,52.25
2024-01-12T21:30:46.780Z,51.92
2024-01-12T21:34:50.883Z,52.20
2024-01-12T21:38:55.252Z,52.13
2024-01-12T21:42:58.518Z,52.83
2024-01-12T21:47:00.428Z,51.87
2024-01-12T21:51:02.012Z,52.05
2024-01-12T21:55:06.247Z,52.43
2024-01-12T21:59:09.190Z,52.04
2024-01-12T22:03:10.959Z,51.98
2024-01-12T22:07:13.984Z,52.46
2024-01-12T22:11:15.818Z,52.58
2024-01-12T22:15:17.598Z,53.01
2024-01-12T22:19:19.544Z,51.99
2024-01-12T22:23:21.350Z,52.54
2024-01-12T22:27:22.925Z,52.46
2024-01-12T22:31:27.677Z,52.55
2024-01-12T22:35:30.057Z,52.19
2024-01-12T22:39:31.642Z,53.41
2024-01-12T22:43:33.474Z,52.88
2024-01-12T22:47:36.371Z,52.05
2024-01-12T22:51:38.174Z,51.85
2024-01-12T22:55:39.839Z,52.70
2024-01-12T22:59:43.921Z,51.94
2024-01-12T23:03:46.605Z,52.21
2024-01-12T23:07:48.441Z,51.76
2024-01-12T23:11:51.668Z,51.89
2024-01-12T23:15:53.690Z,51.82
2024-01-12T23:19:55.679Z,51.93
2024-01-12T23:23:57.511Z,52.33
2024-01-12T23:27:59.808Z,51.79
2024-01-12T23:32:01.906Z,51.67
2024-01-12T23:36:05.571Z,51.92
2024-01-12T23:40:14.763Z,51.83
2024-01-12T23:44:16.812Z,51.87
2024-01-12T23:48:27.471Z,51.36
2024-01-12T23:52:37.480Z,51.60
2024-01-12T23:56:39.812Z,51.23
